createdAt,value
2019-01-18T00:01:56.596Z,1.50
2019-01-18T00:04:24.058Z,1.30
2019-01-18T00:06:51.448Z,1.70
2019-01-18T00:09:18.863Z,1.67
2019-01-18T00:11:46.259Z,1.13
2019-01-18T00:14:13.766Z,1.33
2019-01-18T00:16:41.159Z,1.27
2019-01-18T00:19:08.580Z,1.37
2019-01-18T00:21:35.968Z,1.37
2019-01-18T00:24:03.386Z,0.93
2019-01-18T00:26:30.823Z,1.13
2019-01-18T00:28:58.242Z,1.50
2019-01-18T00:31:25.625Z,1.43
2019-01-18T00:33:53.045Z,1.00
2019-01-18T00:36:20.503Z,1.40
2019-01-18T00:38:47.923Z,1.67
2019-01-18T00:41:15.361Z,1.20
2019-01-18T00:43:42.782Z,1.13
2019-01-18T00:46:10.245Z,1.03
2019-01-18T00:48:37.762Z,1.30
2019-01-18T00:51:05.149Z,1.27
2019-01-18T00:53:32.566Z,1.40
2019-01-18T00:56:00.002Z,1.70
2019-01-18T00:58:27.425Z,1.10
2019-01-18T01:00:54.814Z,1.13
2019-01-18T01:03:22.298Z,1.50
2019-01-18T01:05:49.694Z,1.10
2019-01-18T01:08:17.219Z,1.67
2019-01-18T01:10:44.664Z,1.20
2019-01-18T01:13:12.082Z,1.20
2019-01-18T01:15:39.538Z,1.60
2019-01-18T01:18:07.035Z,1.13
2019-01-18T01:20:34.423Z,1.07
2019-01-18T01:23:01.881Z,1.20
2019-01-18T01:25:29.371Z,1.55
2019-01-18T01:27:56.830Z,1.20
2019-01-18T01:30:25.259Z,1.47
2019-01-18T01:32:52.921Z,1.40
2019-01-18T01:35:20.403Z,1.10
2019-01-18T01:37:47.803Z,1.13
2019-01-18T01:40:16.394Z,1.37
2019-01-18T01:42:43.782Z,1.07
2019-01-18T01:45:12.741Z,1.27
2019-01-18T01:47:40.302Z,1.30
2019-01-18T01:50:09.256Z,1.30
2019-01-18T01:52:36.645Z,1.10
2019-01-18T01:55:05.838Z,1.12
2019-01-18T01:57:33.233Z,0.90
2019-01-18T02:00:00.646Z,1.20
2019-01-18T02:02:28.170Z,1.23
2019-01-18T02:04:55.585Z,1.30
2019-01-18T02:07:22.975Z,1.37
2019-01-18T02:09:50.387Z,1.20
2019-01-18T02:12:17.830Z,1.40
2019-01-18T02:14:45.244Z,1.30
2019-01-18T02:17:12.642Z,1.63
2019-01-18T02:19:40.071Z,1.13
2019-01-18T02:22:07.722Z,1.05
2019-01-18T02:24:35.135Z,1.03
2019-01-18T02:27:02.591Z,1.63
2019-01-18T02:29:31.082Z,1.53
2019-01-18T02:31:58.467Z,1.40
2019-01-18T02:34:26.001Z,1.13
2019-01-18T02:36:53.633Z,1.43
2019-01-18T02:39:21.045Z,1.00
2019-01-18T02:41:48.436Z,1.03
2019-01-18T02:44:15.929Z,1.07
2019-01-18T02:46:43.356Z,1.10
2019-01-18T02:49:10.763Z,1.10
2019-01-18T02:51:38.155Z,1.53
2019-01-18T02:54:05.801Z,1.40
2019-01-18T02:56:33.190Z,0.90
2019-01-18T02:59:00.600Z,1.00
2019-01-18T03:01:28.060Z,1.20
2019-01-18T03:03:55.450Z,1.33
2019-01-18T03:06:22.873Z,1.47
2019-01-18T03:08:50.258Z,1.10
2019-01-18T03:11:17.679Z,1.10
2019-01-18T03:13:45.061Z,1.30
2019-01-18T03:16:12.475Z,1.30
2019-01-18T03:18:40.399Z,1.00
2019-01-18T03:21:07.899Z,1.50
2019-01-18T03:23:35.281Z,1.53
2019-01-18T03:26:05.439Z,1.27
2019-01-18T03:28:32.833Z,1.40
2019-01-18T03:31:00.242Z,1.50
2019-01-18T03:33:27.641Z,1.50
2019-01-18T03:35:55.054Z,1.63
2019-01-18T03:38:22.438Z,1.30
2019-01-18T03:40:49.853Z,1.20
2019-01-18T03:43:17.246Z,1.30
2019-01-18T03:45:44.664Z,1.30
2019-01-18T03:48:12.123Z,0.90
2019-01-18T03:50:39.539Z,1.17
2019-01-18T03:53:06.937Z,1.40
2019-01-18T03:55:34.349Z,1.20
2019-01-18T03:58:01.739Z,1.10
2019-01-18T04:00:29.252Z,1.67
2019-01-18T04:02:56.704Z,1.03
2019-01-18T04:05:24.750Z,1.25
2019-01-18T04:07:52.143Z,1.07
2019-01-18T04:10:20.134Z,1.17
2019-01-18T04:12:47.638Z,1.50
2019-01-18T04:15:16.298Z,1.13
2019-01-18T04:17:43.760Z,1.03
2019-01-18T04:20:12.567Z,1.30
2019-01-18T04:22:39.953Z,2.17
2019-01-18T04:25:09.019Z,1.27
2019-01-18T04:27:36.480Z,1.37
2019-01-18T04:30:05.767Z,1.00
2019-01-18T04:32:33.158Z,1.17
2019-01-18T04:35:00.578Z,1.07
2019-01-18T04:37:27.966Z,1.10
2019-01-18T04:39:55.385Z,1.17
2019-01-18T04:42:22.771Z,1.20
2019-01-18T04:44:50.182Z,1.00
2019-01-18T04:47:17.578Z,1.32
2019-01-18T04:49:44.997Z,1.20
2019-01-18T04:52:12.392Z,1.03
2019-01-18T04:54:39.799Z,1.30
2019-01-18T04:57:07.190Z,1.33
2019-01-18T04:59:34.615Z,1.20
2019-01-18T05:02:02.074Z,1.20
2019-01-18T05:04:29.668Z,1.00
2019-01-18T05:06:57.151Z,1.60
2019-01-18T05:09:24.538Z,1.60
2019-01-18T05:11:51.965Z,1.10
2019-01-18T05:14:19.398Z,1.43
2019-01-18T05:16:46.939Z,1.40
2019-01-18T05:19:14.326Z,1.63
2019-01-18T05:21:41.798Z,1.10
2019-01-18T05:24:09.185Z,1.03
2019-01-18T05:26:36.602Z,1.27
2019-01-18T05:29:03.989Z,1.43
2019-01-18T05:31:31.402Z,1.90
2019-01-18T05:33:58.787Z,0.90
2019-01-18T05:36:26.212Z,1.27
2019-01-18T05:38:53.593Z,1.40
2019-01-18T05:41:21.023Z,1.20
2019-01-18T05:43:48.414Z,1.13
2019-01-18T05:46:15.858Z,1.40
2019-01-18T05:48:43.283Z,1.73
2019-01-18T05:51:10.775Z,1.10
2019-01-18T05:53:38.338Z,1.43
2019-01-18T05:56:05.831Z,2.33
2019-01-18T05:58:33.299Z,1.60
2019-01-18T06:01:02.292Z,1.97
2019-01-18T06:03:29.676Z,2.10
2019-01-18T06:05:57.155Z,2.30
2019-01-18T06:08:24.548Z,2.40
2019-01-18T06:10:52.040Z,1.93
2019-01-18T06:13:19.455Z,2.67
2019-01-18T06:15:46.884Z,1.57
2019-01-18T06:18:14.269Z,2.50
2019-01-18T06:20:41.696Z,2.00
2019-01-18T06:23:09.093Z,2.20
2019-01-18T06:25:36.518Z,2.30
2019-01-18T06:28:04.072Z,3.83
2019-01-18T06:30:31.461Z,2.40
2019-01-18T06:32:58.899Z,1.80
2019-01-18T06:35:26.289Z,2.83
2019-01-18T06:37:53.798Z,1.90
2019-01-18T06:40:21.934Z,2.00
2019-01-18T06:42:49.357Z,2.10
2019-01-18T06:45:17.977Z,1.40
2019-01-18T06:47:45.395Z,2.13
2019-01-18T06:50:14.327Z,1.80
2019-01-18T06:52:41.825Z,2.20
2019-01-18T06:55:10.094Z,1.87
2019-01-18T06:57:37.582Z,2.37
2019-01-18T07:00:06.511Z,2.30
2019-01-18T07:02:37.959Z,2.97
2019-01-18T07:05:06.714Z,2.20
2019-01-18T07:07:34.135Z,2.60
2019-01-18T07:10:01.530Z,2.40
2019-01-18T07:12:28.942Z,2.70
2019-01-18T07:14:56.342Z,2.47
2019-01-18T07:17:23.858Z,2.50
2019-01-18T07:19:51.247Z,2.57
2019-01-18T07:22:18.739Z,4.23
2019-01-18T07:24:46.194Z,2.40
2019-01-18T07:27:13.613Z,2.50
2019-01-18T07:29:40.999Z,2.20
2019-01-18T07:32:08.507Z,1.87
2019-01-18T07:34:35.895Z,1.97
2019-01-18T07:37:03.323Z,1.90
2019-01-18T07:39:30.718Z,1.80
2019-01-18T07:41:58.145Z,2.43
2019-01-18T07:44:25.538Z,1.97
2019-01-18T07:46:53.019Z,1.98
2019-01-18T07:49:20.448Z,2.07
2019-01-18T07:51:47.831Z,2.27
2019-01-18T07:54:15.312Z,2.60
2019-01-18T07:56:42.707Z,2.00
2019-01-18T07:59:10.125Z,1.70
2019-01-18T08:01:37.518Z,2.90
2019-01-18T08:04:05.007Z,2.10
2019-01-18T08:06:32.401Z,2.77
2019-01-18T08:08:59.809Z,1.80
2019-01-18T08:11:27.267Z,2.10
2019-01-18T08:13:54.683Z,1.80
2019-01-18T08:16:22.075Z,3.00
2019-01-18T08:18:49.495Z,2.37
2019-01-18T08:21:16.890Z,2.13
2019-01-18T08:23:45.655Z,1.77
2019-01-18T08:26:13.106Z,1.80
2019-01-18T08:28:40.508Z,1.57
2019-01-18T08:31:07.907Z,1.60
2019-01-18T08:33:35.392Z,2.13
2019-01-18T08:36:02.850Z,1.97
2019-01-18T08:38:30.254Z,1.87
2019-01-18T08:40:57.711Z,1.93
2019-01-18T08:43:25.187Z,1.43
2019-01-18T08:45:52.582Z,2.60
2019-01-18T08:48:20.059Z,2.07
2019-01-18T08:50:47.517Z,2.80
2019-01-18T08:53:15.003Z,1.63
2019-01-18T08:55:42.462Z,1.97
2019-01-18T08:58:09.852Z,1.70
2019-01-18T09:00:37.357Z,1.77
2019-01-18T09:03:04.811Z,1.57
2019-01-18T09:05:32.294Z,1.90
2019-01-18T09:07:59.762Z,1.57
2019-01-18T09:10:28.342Z,2.20
2019-01-18T09:12:55.730Z,1.47
2019-01-18T09:15:23.218Z,2.20
2019-01-18T09:17:50.674Z,2.97
2019-01-18T09:20:22.614Z,1.80
2019-01-18T09:22:50.007Z,2.37
2019-01-18T09:25:17.483Z,1.77
2019-01-18T09:27:44.955Z,1.40
2019-01-18T09:30:13.930Z,1.40
2019-01-18T09:32:41.328Z,1.50
2019-01-18T09:35:10.007Z,1.20
2019-01-18T09:37:37.568Z,1.47
2019-01-18T09:40:06.529Z,1.57
2019-01-18T09:42:33.946Z,1.50
2019-01-18T09:45:01.431Z,1.50
2019-01-18T09:47:28.823Z,1.93
2019-01-18T09:49:56.239Z,1.70
2019-01-18T09:52:23.675Z,1.53
2019-01-18T09:54:51.165Z,1.40
2019-01-18T09:57:18.560Z,1.83
2019-01-18T09:59:46.098Z,1.33
2019-01-18T10:02:13.501Z,1.10
2019-01-18T10:04:40.910Z,1.97
2019-01-18T10:07:08.304Z,1.50
2019-01-18T10:09:35.715Z,1.53
2019-01-18T10:12:03.279Z,1.40
2019-01-18T10:14:30.691Z,1.53
2019-01-18T10:16:58.079Z,1.03
2019-01-18T10:19:25.501Z,1.47
2019-01-18T10:21:52.883Z,1.30
2019-01-18T10:24:21.112Z,1.47
2019-01-18T10:26:48.531Z,1.30
2019-01-18T10:29:16.002Z,1.20
2019-01-18T10:31:43.414Z,1.30
2019-01-18T10:34:10.795Z,1.20
2019-01-18T10:36:38.353Z,1.00
2019-01-18T10:39:08.781Z,1.17
2019-01-18T10:41:36.266Z,1.23
2019-01-18T10:44:06.079Z,1.10
2019-01-18T10:46:33.066Z,1.67
2019-01-18T10:49:00.517Z,1.33
2019-01-18T10:51:27.999Z,1.20
2019-01-18T10:53:55.386Z,1.73
2019-01-18T10:56:22.809Z,1.33
2019-01-18T10:58:50.246Z,1.10
2019-01-18T11:01:17.657Z,1.30
2019-01-18T11:03:45.053Z,1.00
2019-01-18T11:06:12.471Z,1.40
2019-01-18T11:08:39.855Z,1.57
2019-01-18T11:11:07.275Z,1.60
2019-01-18T11:13:34.676Z,1.17
2019-01-18T11:16:02.159Z,1.40
2019-01-18T11:18:29.545Z,1.60
2019-01-18T11:20:56.971Z,1.00
2019-01-18T11:23:24.358Z,1.33
2019-01-18T11:25:51.816Z,1.20
2019-01-18T11:28:19.244Z,1.30
2019-01-18T11:30:46.696Z,1.33
2019-01-18T11:33:14.109Z,1.40
2019-01-18T11:35:41.563Z,1.27
2019-01-18T11:38:09.053Z,1.10
2019-01-18T11:40:36.435Z,1.30
2019-01-18T11:43:04.117Z,1.20
2019-01-18T11:45:31.580Z,1.23
2019-01-18T11:47:59.113Z,1.87
2019-01-18T11:50:26.975Z,1.10
2019-01-18T11:52:54.540Z,1.10
2019-01-18T11:55:22.170Z,1.37
2019-01-18T11:57:49.588Z,1.13
2019-01-18T12:00:18.048Z,1.23
2019-01-18T12:02:45.534Z,1.20
2019-01-18T12:05:13.026Z,0.97
2019-01-18T12:07:40.524Z,1.60
2019-01-18T12:10:12.296Z,1.27
2019-01-18T12:12:39.787Z,1.10
2019-01-18T12:15:08.850Z,1.47
2019-01-18T12:17:36.336Z,1.10
2019-01-18T12:20:05.749Z,1.10
2019-01-18T12:22:33.167Z,1.47
2019-01-18T12:25:00.562Z,1.60
2019-01-18T12:27:28.054Z,1.17
2019-01-18T12:29:55.446Z,1.23
2019-01-18T12:32:28.621Z,1.10
2019-01-18T12:34:51.896Z,1.60
2019-01-18T12:37:19.323Z,1.30
2019-01-18T12:39:48.347Z,1.20
2019-01-18T12:42:15.865Z,1.63
2019-01-18T12:44:43.262Z,1.17
2019-01-18T12:47:10.758Z,1.20
2019-01-18T12:49:38.164Z,1.00
2019-01-18T12:52:05.661Z,2.10
2019-01-18T12:54:33.074Z,2.07
2019-01-18T12:57:00.466Z,1.17
2019-01-18T12:59:27.883Z,1.53
2019-01-18T13:01:55.394Z,1.00
2019-01-18T13:04:22.887Z,1.20
2019-01-18T13:06:50.278Z,1.57
2019-01-18T13:09:17.698Z,1.10
2019-01-18T13:11:45.095Z,1.00
2019-01-18T13:14:12.612Z,1.20
2019-01-18T13:16:40.002Z,1.30
2019-01-18T13:19:07.419Z,1.10
2019-01-18T13:21:34.851Z,1.50
2019-01-18T13:24:02.433Z,0.90
2019-01-18T13:26:29.975Z,1.30
2019-01-18T13:28:57.394Z,1.10
2019-01-18T13:31:24.787Z,3.17
2019-01-18T13:33:52.273Z,0.80
2019-01-18T13:36:19.824Z,1.20
2019-01-18T13:38:47.292Z,1.00
2019-01-18T13:41:14.670Z,1.10
2019-01-18T13:43:42.098Z,1.13
2019-01-18T13:46:09.485Z,1.47
2019-01-18T13:48:36.986Z,1.03
2019-01-18T13:51:04.455Z,1.40
2019-01-18T13:53:31.945Z,1.00
2019-01-18T13:55:59.335Z,1.07
2019-01-18T13:58:26.751Z,0.90
2019-01-18T14:00:54.148Z,1.00
2019-01-18T14:03:21.648Z,1.20
2019-01-18T14:05:49.039Z,0.80
2019-01-18T14:08:16.527Z,0.90
2019-01-18T14:10:43.924Z,1.10
2019-01-18T14:13:11.335Z,1.10
2019-01-18T14:15:38.725Z,1.10
2019-01-18T14:18:06.192Z,1.07
2019-01-18T14:20:33.609Z,1.07
2019-01-18T14:23:01.003Z,1.40
2019-01-18T14:25:28.486Z,1.20
2019-01-18T14:27:55.873Z,0.90
2019-01-18T14:30:24.902Z,1.20
2019-01-18T14:32:55.554Z,1.00
2019-01-18T14:35:21.870Z,0.83
2019-01-18T14:37:49.336Z,0.90
2019-01-18T14:40:17.505Z,1.00
2019-01-18T14:42:45.169Z,1.20
2019-01-18T14:45:14.357Z,1.23
2019-01-18T14:47:41.823Z,0.97
2019-01-18T14:50:12.744Z,1.20
2019-01-18T14:52:40.141Z,1.43
2019-01-18T14:55:07.826Z,0.90
2019-01-18T14:57:35.214Z,1.50
2019-01-18T15:00:04.863Z,0.90
2019-01-18T15:02:32.246Z,1.00
2019-01-18T15:04:59.758Z,1.27
2019-01-18T15:07:27.183Z,1.53
2019-01-18T15:09:57.566Z,1.00
2019-01-18T15:12:23.703Z,1.40
2019-01-18T15:14:51.118Z,1.07
2019-01-18T15:17:18.506Z,1.30
2019-01-18T15:19:46.034Z,1.00
2019-01-18T15:22:13.431Z,1.07
2019-01-18T15:24:40.851Z,1.10
2019-01-18T15:27:08.306Z,1.00
2019-01-18T15:29:35.721Z,1.17
2019-01-18T15:32:03.115Z,0.90
2019-01-18T15:34:30.521Z,1.73
2019-01-18T15:36:57.918Z,1.33
2019-01-18T15:39:25.339Z,1.00
2019-01-18T15:41:52.732Z,1.07
2019-01-18T15:44:20.144Z,1.00
2019-01-18T15:46:47.627Z,1.00
2019-01-18T15:49:15.114Z,0.80
2019-01-18T15:51:42.503Z,0.90
2019-01-18T15:54:09.917Z,0.90
2019-01-18T15:56:37.307Z,1.33
2019-01-18T15:59:04.727Z,1.33
2019-01-18T16:01:32.187Z,1.00
2019-01-18T16:03:59.676Z,1.40
2019-01-18T16:06:27.075Z,1.07
2019-01-18T16:08:54.488Z,1.13
2019-01-18T16:11:21.990Z,1.10
2019-01-18T16:13:49.383Z,1.20
2019-01-18T16:16:17.472Z,1.40
2019-01-18T16:18:44.884Z,1.10
2019-01-18T16:21:12.365Z,1.33
2019-01-18T16:23:39.790Z,1.10
2019-01-18T16:26:07.813Z,1.13
2019-01-18T16:28:35.210Z,1.47
2019-01-18T16:31:02.623Z,1.40
2019-01-18T16:33:30.023Z,1.40
2019-01-18T16:35:57.500Z,1.10
2019-01-18T16:38:24.956Z,1.47
2019-01-18T16:40:52.371Z,1.37
2019-01-18T16:43:21.652Z,1.30
2019-01-18T16:45:49.066Z,1.30
2019-01-18T16:48:17.397Z,2.00
2019-01-18T16:50:46.129Z,1.73
2019-01-18T16:53:14.380Z,1.20
2019-01-18T16:55:42.708Z,1.37
2019-01-18T16:58:11.238Z,1.40
2019-01-18T17:00:41.282Z,1.60
2019-01-18T17:03:09.764Z,1.20
2019-01-18T17:05:38.016Z,1.70
2019-01-18T17:08:05.956Z,1.30
2019-01-18T17:10:33.384Z,1.23
2019-01-18T17:13:00.784Z,1.53
2019-01-18T17:15:28.364Z,1.63
2019-01-18T17:17:55.750Z,2.00
2019-01-18T17:20:24.363Z,2.40
2019-01-18T17:22:51.751Z,2.07
2019-01-18T17:25:19.171Z,1.87
2019-01-18T17:27:46.633Z,1.50
2019-01-18T17:30:15.427Z,1.83
2019-01-18T17:32:42.882Z,2.07
2019-01-18T17:35:11.906Z,2.40
2019-01-18T17:37:39.537Z,2.10
2019-01-18T17:40:08.496Z,1.90
2019-01-18T17:42:37.419Z,1.80
2019-01-18T17:45:12.095Z,2.17
2019-01-18T17:47:43.702Z,2.10
2019-01-18T17:50:18.569Z,2.50
2019-01-18T17:52:47.503Z,2.40
2019-01-18T17:55:16.462Z,2.57
2019-01-18T17:57:48.549Z,2.53
2019-01-18T18:00:29.498Z,2.60
2019-01-18T18:03:04.698Z,2.63
2019-01-18T18:05:42.999Z,2.30
2019-01-18T18:08:18.063Z,2.30
2019-01-18T18:11:04.538Z,1.70
2019-01-18T18:13:50.460Z,2.07
2019-01-18T18:16:28.439Z,2.50
2019-01-18T18:19:15.438Z,2.60
2019-01-18T18:21:59.962Z,2.60
2019-01-18T18:24:43.777Z,2.83
2019-01-18T18:27:27.735Z,2.10
2019-01-18T18:29:56.660Z,2.17
2019-01-18T18:32:31.613Z,1.97
2019-01-18T18:35:00.538Z,2.57
2019-01-18T18:37:38.595Z,3.40
2019-01-18T18:40:22.537Z,3.30
2019-01-18T18:42:51.492Z,2.20
2019-01-18T18:45:38.444Z,2.10
2019-01-18T18:48:13.185Z,2.70
2019-01-18T18:50:42.115Z,2.37
2019-01-18T18:53:27.770Z,3.60
2019-01-18T18:55:56.706Z,2.87
2019-01-18T18:58:31.837Z,2.30
2019-01-18T19:01:00.775Z,2.40
2019-01-18T19:03:32.420Z,3.57
2019-01-18T19:06:01.357Z,3.10
2019-01-18T19:08:48.314Z,3.27
2019-01-18T19:11:20.011Z,3.00
2019-01-18T19:13:48.990Z,3.10
2019-01-18T19:16:23.892Z,3.07
2019-01-18T19:18:55.546Z,3.20
2019-01-18T19:21:41.217Z,3.10
2019-01-18T19:24:28.235Z,3.60
2019-01-18T19:26:57.271Z,2.87
2019-01-18T19:29:29.070Z,2.73
2019-01-18T19:32:00.699Z,4.57
2019-01-18T19:34:29.628Z,4.17
2019-01-18T19:36:58.588Z,3.43
2019-01-18T19:39:30.195Z,2.37
2019-01-18T19:42:02.119Z,2.60
2019-01-18T19:44:40.013Z,3.03
2019-01-18T19:47:12.111Z,3.40
2019-01-18T19:49:47.163Z,4.07
2019-01-18T19:52:25.100Z,3.27
2019-01-18T19:54:56.714Z,3.83
2019-01-18T19:57:34.567Z,3.00
2019-01-18T20:00:20.265Z,3.40
2019-01-18T20:02:55.012Z,3.00
2019-01-18T20:05:32.987Z,2.30
2019-01-18T20:08:01.950Z,2.33
2019-01-18T20:10:31.004Z,4.40
2019-01-18T20:13:18.678Z,4.00
2019-01-18T20:15:47.598Z,5.17
2019-01-18T20:18:19.232Z,4.40
2019-01-18T20:20:48.172Z,3.90
2019-01-18T20:23:23.036Z,4.73
2019-01-18T20:25:51.957Z,4.10
2019-01-18T20:28:29.939Z,4.43
2019-01-18T20:30:58.872Z,5.17
2019-01-18T20:33:39.940Z,4.07
2019-01-18T20:36:11.811Z,6.40
2019-01-18T20:38:40.782Z,10.93
2019-01-18T20:41:10.200Z,5.23
2019-01-18T20:43:45.154Z,5.40
2019-01-18T20:46:14.088Z,5.20
2019-01-18T20:48:43.150Z,5.30
2019-01-18T20:51:29.152Z,5.60
2019-01-18T20:54:03.913Z,5.10
2019-01-18T20:56:38.576Z,4.40
2019-01-18T20:59:10.503Z,5.70
2019-01-18T21:01:55.945Z,4.30
2019-01-18T21:04:34.086Z,4.07
2019-01-18T21:07:12.079Z,4.60
2019-01-18T21:09:44.077Z,5.50
2019-01-18T21:12:20.008Z,4.37
2019-01-18T21:14:54.791Z,5.37
2019-01-18T21:17:40.255Z,5.73
2019-01-18T21:20:09.217Z,8.60
2019-01-18T21:22:38.177Z,5.33
2019-01-18T21:25:25.239Z,5.53
2019-01-18T21:28:03.272Z,13.10
2019-01-18T21:30:37.931Z,7.33
2019-01-18T21:33:23.507Z,7.13
2019-01-18T21:35:52.473Z,7.73
2019-01-18T21:38:27.276Z,7.30
2019-01-18T21:41:05.500Z,6.10
2019-01-18T21:43:40.472Z,6.13
2019-01-18T21:46:19.354Z,5.37
2019-01-18T21:48:48.361Z,5.10
2019-01-18T21:51:29.627Z,6.80
2019-01-18T21:54:07.842Z,5.40
2019-01-18T21:56:53.605Z,5.70
2019-01-18T21:59:25.474Z,6.03
2019-01-18T22:02:00.447Z,6.00
2019-01-18T22:04:40.497Z,6.00
2019-01-18T22:07:11.775Z,6.00
2019-01-18T22:09:52.669Z,5.43
2019-01-18T22:12:39.421Z,6.00
2019-01-18T22:15:14.347Z,5.60
2019-01-18T22:18:01.632Z,6.43
2019-01-18T22:20:30.546Z,5.63
2019-01-18T22:23:02.419Z,4.80
2019-01-18T22:25:37.091Z,4.57
2019-01-18T22:28:22.917Z,4.83
2019-01-18T22:30:51.966Z,5.20
2019-01-18T22:33:21.057Z,6.10
2019-01-18T22:35:50.062Z,4.83
2019-01-18T22:38:19.117Z,5.43
2019-01-18T22:40:55.418Z,5.17
2019-01-18T22:43:35.043Z,6.10
2019-01-18T22:46:10.220Z,5.90
2019-01-18T22:48:48.235Z,5.87
2019-01-18T22:51:17.190Z,5.70
2019-01-18T22:53:46.144Z,5.90
2019-01-18T22:56:15.170Z,7.10
2019-01-18T22:58:50.302Z,5.40
2019-01-18T23:01:35.838Z,7.00
2019-01-18T23:04:07.710Z,5.97
2019-01-18T23:06:36.676Z,5.53
2019-01-18T23:09:15.615Z,6.70
2019-01-18T23:11:44.872Z,6.40
2019-01-18T23:14:19.526Z,8.10
2019-01-18T23:16:54.489Z,6.77
2019-01-18T23:19:23.415Z,7.27
2019-01-18T23:21:58.101Z,5.90
2019-01-18T23:24:27.032Z,6.20
2019-01-18T23:27:02.181Z,6.80
2019-01-18T23:29:48.022Z,6.00
2019-01-18T23:32:31.947Z,5.90
2019-01-18T23:35:03.001Z,6.30
2019-01-18T23:37:37.649Z,6.97
2019-01-18T23:40:23.162Z,5.00
2019-01-18T23:42:57.862Z,5.10
2019-01-18T23:45:26.765Z,5.80
2019-01-18T23:47:58.422Z,6.50
2019-01-18T23:50:27.393Z,4.63
2019-01-18T23:52:56.347Z,5.17
2019-01-18T23:55:41.831Z,5.73
2019-01-18T23:58:16.866Z,4.70
